sensor_id;sensor_type;location;lat;lon;timestamp;P1;durP1;ratioP1;P2;durP2;ratioP2
72639;SDS011;60683;51.730;8.762;2024-01-25T00:02:15;4.85;;;1.35;;
72639;SDS011;60683;51.730;8.762;2024-01-25T00:05:00;9.25;;;1.88;;
72639;SDS011;60683;51.730;8.762;2024-01-25T00:07:46;15.60;;;2.58;;
72639;SDS011;60683;51.730;8.762;2024-01-25T00:10:31;6.70;;;1.63;;
72639;SDS011;60683;51.730;8.762;2024-01-25T00:13:17;13.57;;;1.65;;
72639;SDS011;60683;51.730;8.762;2024-01-25T00:16:02;6.47;;;1.42;;
72639;SDS011;60683;51.730;8.762;2024-01-25T00:18:49;14.85;;;4.50;;
72639;SDS011;60683;51.730;8.762;2024-01-25T00:21:35;15.10;;;2.50;;
72639;SDS011;60683;51.730;8.762;2024-01-25T00:24:27;7.03;;;1.27;;
72639;SDS011;60683;51.730;8.762;2024-01-25T00:27:12;8.32;;;2.13;;
72639;SDS011;60683;51.730;8.762;2024-01-25T00:29:58;14.32;;;3.75;;
72639;SDS011;60683;51.730;8.762;2024-01-25T00:32:44;7.88;;;1.17;;
72639;SDS011;60683;51.730;8.762;2024-01-25T00:35:31;10.65;;;2.58;;
72639;SDS011;60683;51.730;8.762;2024-01-25T00:38:17;10.40;;;1.40;;
72639;SDS011;60683;51.730;8.762;2024-01-25T00:41:03;9.32;;;2.28;;
72639;SDS011;60683;51.730;8.762;2024-01-25T00:43:53;20.33;;;2.85;;
72639;SDS011;60683;51.730;8.762;2024-01-25T00:46:39;7.15;;;2.13;;
72639;SDS011;60683;51.730;8.762;2024-01-25T00:49:25;37.10;;;3.50;;
72639;SDS011;60683;51.730;8.762;2024-01-25T00:52:12;6.32;;;1.55;;
72639;SDS011;60683;51.730;8.762;2024-01-25T00:54:58;8.75;;;2.17;;
72639;SDS011;60683;51.730;8.762;2024-01-25T00:57:44;9.82;;;1.73;;
72639;SDS011;60683;51.730;8.762;2024-01-25T01:00:30;11.85;;;2.85;;
72639;SDS011;60683;51.730;8.762;2024-01-25T01:03:15;8.48;;;1.77;;
72639;SDS011;60683;51.730;8.762;2024-01-25T01:06:03;11.50;;;2.33;;
72639;SDS011;60683;51.730;8.762;2024-01-25T01:08:50;21.50;;;3.33;;
72639;SDS011;60683;51.730;8.762;2024-01-25T01:11:36;11.00;;;2.95;;
72639;SDS011;60683;51.730;8.762;2024-01-25T01:14:22;14.68;;;2.60;;
72639;SDS011;60683;51.730;8.762;2024-01-25T01:17:07;15.38;;;2.53;;
72639;SDS011;60683;51.730;8.762;2024-01-25T01:19:53;11.88;;;2.90;;
72639;SDS011;60683;51.730;8.762;2024-01-25T01:22:38;12.70;;;1.83;;
72639;SDS011;60683;51.730;8.762;2024-01-25T01:25:25;9.88;;;2.08;;
72639;SDS011;60683;51.730;8.762;2024-01-25T01:28:10;7.30;;;1.65;;
72639;SDS011;60683;51.730;8.762;2024-01-25T01:30:55;7.43;;;1.70;;
72639;SDS011;60683;51.730;8.762;2024-01-25T01:33:41;7.63;;;3.22;;
72639;SDS011;60683;51.730;8.762;2024-01-25T01:36:26;12.90;;;2.30;;
72639;SDS011;60683;51.730;8.762;2024-01-25T01:39:11;8.55;;;2.50;;
72639;SDS011;60683;51.730;8.762;2024-01-25T01:41:58;6.55;;;2.25;;
72639;SDS011;60683;51.730;8.762;2024-01-25T01:44:43;8.10;;;2.15;;
72639;SDS011;60683;51.730;8.762;2024-01-25T01:47:29;8.77;;;2.75;;
72639;SDS011;60683;51.730;8.762;2024-01-25T01:50:14;10.93;;;2.65;;
72639;SDS011;60683;51.730;8.762;2024-01-25T01:53:00;10.35;;;2.10;;
72639;SDS011;60683;51.730;8.762;2024-01-25T01:55:46;12.30;;;3.45;;
72639;SDS011;60683;51.730;8.762;2024-01-25T01:58:32;10.30;;;2.40;;
72639;SDS011;60683;51.730;8.762;2024-01-25T02:01:18;11.60;;;2.00;;
72639;SDS011;60683;51.730;8.762;2024-01-25T02:04:04;13.95;;;1.65;;
72639;SDS011;60683;51.730;8.762;2024-01-25T02:06:49;6.88;;;1.50;;
72639;SDS011;60683;51.730;8.762;2024-01-25T02:09:35;6.93;;;1.05;;
72639;SDS011;60683;51.730;8.762;2024-01-25T02:12:20;11.10;;;1.55;;
72639;SDS011;60683;51.730;8.762;2024-01-25T02:15:07;7.15;;;2.33;;
72639;SDS011;60683;51.730;8.762;2024-01-25T02:17:53;9.63;;;1.75;;
72639;SDS011;60683;51.730;8.762;2024-01-25T02:20:38;12.32;;;2.65;;
72639;SDS011;60683;51.730;8.762;2024-01-25T02:23:25;15.75;;;2.78;;
72639;SDS011;60683;51.730;8.762;2024-01-25T02:26:11;10.10;;;2.22;;
72639;SDS011;60683;51.730;8.762;2024-01-25T02:28:56;13.15;;;3.20;;
72639;SDS011;60683;51.730;8.762;2024-01-25T02:31:42;11.38;;;2.30;;
72639;SDS011;60683;51.730;8.762;2024-01-25T02:34:27;15.32;;;2.47;;
72639;SDS011;60683;51.730;8.762;2024-01-25T02:37:12;7.53;;;1.95;;
72639;SDS011;60683;51.730;8.762;2024-01-25T02:39:59;22.33;;;2.85;;
72639;SDS011;60683;51.730;8.762;2024-01-25T02:42:45;11.23;;;2.42;;
72639;SDS011;60683;51.730;8.762;2024-01-25T02:45:30;14.25;;;2.50;;
72639;SDS011;60683;51.730;8.762;2024-01-25T02:48:16;7.55;;;2.35;;
72639;SDS011;60683;51.730;8.762;2024-01-25T02:51:02;12.60;;;2.65;;
72639;SDS011;60683;51.730;8.762;2024-01-25T02:53:47;5.15;;;1.58;;
72639;SDS011;60683;51.730;8.762;2024-01-25T02:56:34;7.78;;;1.50;;
72639;SDS011;60683;51.730;8.762;2024-01-25T02:59:19;14.48;;;2.20;;
72639;SDS011;60683;51.730;8.762;2024-01-25T03:02:05;12.20;;;1.98;;
72639;SDS011;60683;51.730;8.762;2024-01-25T03:04:51;10.07;;;1.73;;
72639;SDS011;60683;51.730;8.762;2024-01-25T03:07:36;8.88;;;2.67;;
72639;SDS011;60683;51.730;8.762;2024-01-25T03:10:22;10.25;;;3.00;;
72639;SDS011;60683;51.730;8.762;2024-01-25T03:13:08;7.90;;;2.35;;
72639;SDS011;60683;51.730;8.762;2024-01-25T03:15:54;7.80;;;1.92;;
72639;SDS011;60683;51.730;8.762;2024-01-25T03:18:39;7.43;;;1.92;;
72639;SDS011;60683;51.730;8.762;2024-01-25T03:21:24;8.18;;;2.70;;
72639;SDS011;60683;51.730;8.762;2024-01-25T03:24:09;4.03;;;1.48;;
72639;SDS011;60683;51.730;8.762;2024-01-25T03:26:58;8.23;;;2.03;;
72639;SDS011;60683;51.730;8.762;2024-01-25T03:29:44;8.90;;;2.67;;
72639;SDS011;60683;51.730;8.762;2024-01-25T03:32:29;6.10;;;2.13;;
72639;SDS011;60683;51.730;8.762;2024-01-25T03:35:14;6.40;;;1.38;;
72639;SDS011;60683;51.730;8.762;2024-01-25T03:38:00;7.47;;;2.08;;
72639;SDS011;60683;51.730;8.762;2024-01-25T03:40:45;9.07;;;2.22;;
72639;SDS011;60683;51.730;8.762;2024-01-25T03:43:31;6.85;;;1.60;;
72639;SDS011;60683;51.730;8.762;2024-01-25T03:46:18;9.07;;;2.22;;
72639;SDS011;60683;51.730;8.762;2024-01-25T03:49:03;11.35;;;2.33;;
72639;SDS011;60683;51.730;8.762;2024-01-25T03:51:49;9.38;;;1.60;;
72639;SDS011;60683;51.730;8.762;2024-01-25T03:54:34;9.73;;;3.42;;
72639;SDS011;60683;51.730;8.762;2024-01-25T03:57:19;5.90;;;1.90;;
72639;SDS011;60683;51.730;8.762;2024-01-25T04:00:05;10.23;;;2.47;;
72639;SDS011;60683;51.730;8.762;2024-01-25T04:02:53;9.98;;;1.83;;
72639;SDS011;60683;51.730;8.762;2024-01-25T04:05:41;5.50;;;1.60;;
72639;SDS011;60683;51.730;8.762;2024-01-25T04:08:26;0.77;;;0.22;;
72639;SDS011;60683;51.730;8.762;2024-01-25T04:11:12;7.03;;;1.20;;
72639;SDS011;60683;51.730;8.762;2024-01-25T04:13:57;4.85;;;1.17;;
72639;SDS011;60683;51.730;8.762;2024-01-25T04:16:43;12.80;;;2.67;;
72639;SDS011;60683;51.730;8.762;2024-01-25T04:19:31;5.10;;;1.35;;
72639;SDS011;60683;51.730;8.762;2024-01-25T04:22:17;10.38;;;2.20;;
72639;SDS011;60683;51.730;8.762;2024-01-25T04:25:02;8.18;;;1.98;;
72639;SDS011;60683;51.730;8.762;2024-01-25T04:27:49;9.60;;;1.58;;
72639;SDS011;60683;51.730;8.762;2024-01-25T04:30:34;15.43;;;2.10;;
72639;SDS011;60683;51.730;8.762;2024-01-25T04:33:19;4.05;;;1.67;;
72639;SDS011;60683;51.730;8.762;2024-01-25T04:36:06;7.25;;;1.67;;
72639;SDS011;60683;51.730;8.762;2024-01-25T04:38:52;10.43;;;1.98;;
72639;SDS011;60683;51.730;8.762;2024-01-25T04:41:37;13.82;;;2.60;;
72639;SDS011;60683;51.730;8.762;2024-01-25T04:44:22;10.65;;;1.60;;
72639;SDS011;60683;51.730;8.762;2024-01-25T04:47:08;10.65;;;2.20;;
72639;SDS011;60683;51.730;8.762;2024-01-25T04:49:54;24.27;;;2.80;;
72639;SDS011;60683;51.730;8.762;2024-01-25T04:52:40;6.95;;;1.95;;
72639;SDS011;60683;51.730;8.762;2024-01-25T04:55:26;11.25;;;2.55;;
72639;SDS011;60683;51.730;8.762;2024-01-25T04:58:12;15.32;;;2.85;;
72639;SDS011;60683;51.730;8.762;2024-01-25T05:00:57;11.38;;;2.30;;
72639;SDS011;60683;51.730;8.762;2024-01-25T05:03:43;11.85;;;2.90;;
72639;SDS011;60683;51.730;8.762;2024-01-25T05:06:29;17.85;;;2.55;;
72639;SDS011;60683;51.730;8.762;2024-01-25T05:09:16;6.40;;;1.40;;
72639;SDS011;60683;51.730;8.762;2024-01-25T05:12:01;7.05;;;2.08;;
72639;SDS011;60683;51.730;8.762;2024-01-25T05:14:47;8.02;;;1.45;;
72639;SDS011;60683;51.730;8.762;2024-01-25T05:17:33;8.30;;;1.90;;
72639;SDS011;60683;51.730;8.762;2024-01-25T05:20:18;11.05;;;2.95;;
72639;SDS011;60683;51.730;8.762;2024-01-25T05:23:03;14.52;;;2.40;;
72639;SDS011;60683;51.730;8.762;2024-01-25T05:25:50;9.60;;;1.52;;
72639;SDS011;60683;51.730;8.762;2024-01-25T05:28:36;5.70;;;0.90;;
72639;SDS011;60683;51.730;8.762;2024-01-25T05:31:21;8.60;;;1.80;;
72639;SDS011;60683;51.730;8.762;2024-01-25T05:34:06;8.05;;;1.83;;
72639;SDS011;60683;51.730;8.762;2024-01-25T05:36:51;12.32;;;3.38;;
72639;SDS011;60683;51.730;8.762;2024-01-25T05:39:37;4.72;;;2.45;;
72639;SDS011;60683;51.730;8.762;2024-01-25T05:42:24;13.15;;;2.28;;
72639;SDS011;60683;51.730;8.762;2024-01-25T05:45:09;10.13;;;2.47;;
72639;SDS011;60683;51.730;8.762;2024-01-25T05:47:55;7.15;;;1.85;;
72639;SDS011;60683;51.730;8.762;2024-01-25T05:50:41;5.18;;;1.23;;
72639;SDS011;60683;51.730;8.762;2024-01-25T05:53:26;6.88;;;2.05;;
72639;SDS011;60683;51.730;8.762;2024-01-25T05:56:11;8.65;;;1.48;;
72639;SDS011;60683;51.730;8.762;2024-01-25T05:58:57;9.88;;;2.70;;
72639;SDS011;60683;51.730;8.762;2024-01-25T06:01:43;5.22;;;1.85;;
72639;SDS011;60683;51.730;8.762;2024-01-25T06:04:28;10.48;;;2.75;;
72639;SDS011;60683;51.730;8.762;2024-01-25T06:07:13;16.38;;;4.13;;
72639;SDS011;60683;51.730;8.762;2024-01-25T06:09:59;7.90;;;2.00;;
72639;SDS011;60683;51.730;8.762;2024-01-25T06:12:44;12.15;;;2.25;;
72639;SDS011;60683;51.730;8.762;2024-01-25T06:15:31;9.63;;;2.60;;
72639;SDS011;60683;51.730;8.762;2024-01-25T06:18:17;11.38;;;2.88;;
72639;SDS011;60683;51.730;8.762;2024-01-25T06:21:02;8.85;;;2.50;;
72639;SDS011;60683;51.730;8.762;2024-01-25T06:23:48;10.73;;;1.55;;
72639;SDS011;60683;51.730;8.762;2024-01-25T06:26:33;15.07;;;3.58;;
72639;SDS011;60683;51.730;8.762;2024-01-25T06:29:18;6.93;;;1.55;;
72639;SDS011;60683;51.730;8.762;2024-01-25T06:32:06;9.68;;;5.10;;
72639;SDS011;60683;51.730;8.762;2024-01-25T06:34:51;8.68;;;1.75;;
72639;SDS011;60683;51.730;8.762;2024-01-25T06:37:37;8.20;;;1.60;;
72639;SDS011;60683;51.730;8.762;2024-01-25T06:40:22;8.20;;;2.38;;
72639;SDS011;60683;51.730;8.762;2024-01-25T06:43:07;15.48;;;2.58;;
72639;SDS011;60683;51.730;8.762;2024-01-25T06:45:53;10.00;;;1.77;;
72639;SDS011;60683;51.730;8.762;2024-01-25T06:48:40;4.07;;;1.02;;
72639;SDS011;60683;51.730;8.762;2024-01-25T06:51:26;13.98;;;1.77;;
72639;SDS011;60683;51.730;8.762;2024-01-25T06:54:11;15.10;;;2.58;;
72639;SDS011;60683;51.730;8.762;2024-01-25T06:56:57;16.33;;;3.40;;
72639;SDS011;60683;51.730;8.762;2024-01-25T06:59:42;11.23;;;2.63;;
72639;SDS011;60683;51.730;8.762;2024-01-25T07:02:28;9.75;;;2.28;;
72639;SDS011;60683;51.730;8.762;2024-01-25T07:05:15;14.07;;;2.35;;
72639;SDS011;60683;51.730;8.762;2024-01-25T07:08:01;9.55;;;2.38;;
72639;SDS011;60683;51.730;8.762;2024-01-25T07:10:49;12.25;;;2.22;;
72639;SDS011;60683;51.730;8.762;2024-01-25T07:13:34;15.05;;;2.47;;
72639;SDS011;60683;51.730;8.762;2024-01-25T07:16:20;7.57;;;2.30;;
72639;SDS011;60683;51.730;8.762;2024-01-25T07:19:06;7.28;;;2.42;;
72639;SDS011;60683;51.730;8.762;2024-01-25T07:21:52;6.97;;;1.17;;
72639;SDS011;60683;51.730;8.762;2024-01-25T07:24:38;3.45;;;0.90;;
72639;SDS011;60683;51.730;8.762;2024-01-25T07:27:24;15.98;;;2.90;;
72639;SDS011;60683;51.730;8.762;2024-01-25T07:30:10;9.38;;;2.70;;
72639;SDS011;60683;51.730;8.762;2024-01-25T07:32:56;10.57;;;1.85;;
72639;SDS011;60683;51.730;8.762;2024-01-25T07:35:41;12.95;;;2.42;;
72639;SDS011;60683;51.730;8.762;2024-01-25T07:38:31;15.48;;;2.83;;
72639;SDS011;60683;51.730;8.762;2024-01-25T07:41:17;12.38;;;2.47;;
72639;SDS011;60683;51.730;8.762;2024-01-25T07:44:02;7.60;;;2.08;;
72639;SDS011;60683;51.730;8.762;2024-01-25T07:46:49;8.02;;;1.50;;
72639;SDS011;60683;51.730;8.762;2024-01-25T07:49:34;11.57;;;2.20;;
72639;SDS011;60683;51.730;8.762;2024-01-25T07:52:19;7.43;;;2.35;;
72639;SDS011;60683;51.730;8.762;2024-01-25T07:55:06;4.72;;;1.70;;
72639;SDS011;60683;51.730;8.762;2024-01-25T07:57:51;13.02;;;3.17;;
72639;SDS011;60683;51.730;8.762;2024-01-25T08:00:36;14.00;;;3.42;;
72639;SDS011;60683;51.730;8.762;2024-01-25T08:03:22;13.40;;;3.05;;
72639;SDS011;60683;51.730;8.762;2024-01-25T08:06:07;10.15;;;2.65;;
72639;SDS011;60683;51.730;8.762;2024-01-25T08:08:52;10.32;;;1.75;;
72639;SDS011;60683;51.730;8.762;2024-01-25T08:11:39;11.23;;;2.72;;
72639;SDS011;60683;51.730;8.762;2024-01-25T08:14:25;12.40;;;3.05;;
72639;SDS011;60683;51.730;8.762;2024-01-25T08:17:11;18.08;;;3.05;;
72639;SDS011;60683;51.730;8.762;2024-01-25T08:19:56;9.63;;;2.55;;
72639;SDS011;60683;51.730;8.762;2024-01-25T08:22:42;10.70;;;2.70;;
72639;SDS011;60683;51.730;8.762;2024-01-25T08:25:27;11.38;;;2.67;;
72639;SDS011;60683;51.730;8.762;2024-01-25T08:28:14;23.08;;;3.30;;
72639;SDS011;60683;51.730;8.762;2024-01-25T08:30:59;14.15;;;2.83;;
72639;SDS011;60683;51.730;8.762;2024-01-25T08:33:47;22.45;;;4.10;;
72639;SDS011;60683;51.730;8.762;2024-01-25T08:36:33;15.95;;;3.55;;
72639;SDS011;60683;51.730;8.762;2024-01-25T08:39:18;4.55;;;1.50;;
72639;SDS011;60683;51.730;8.762;2024-01-25T08:42:05;12.65;;;3.20;;
72639;SDS011;60683;51.730;8.762;2024-01-25T08:44:52;11.70;;;2.22;;
72639;SDS011;60683;51.730;8.762;2024-01-25T08:47:38;21.77;;;3.33;;
72639;SDS011;60683;51.730;8.762;2024-01-25T08:50:24;15.35;;;3.53;;
72639;SDS011;60683;51.730;8.762;2024-01-25T08:53:09;14.73;;;2.88;;
72639;SDS011;60683;51.730;8.762;2024-01-25T08:55:55;13.82;;;3.00;;
72639;SDS011;60683;51.730;8.762;2024-01-25T08:58:40;8.30;;;2.05;;
72639;SDS011;60683;51.730;8.762;2024-01-25T09:01:27;11.95;;;2.65;;
72639;SDS011;60683;51.730;8.762;2024-01-25T09:04:12;11.00;;;3.40;;
72639;SDS011;60683;51.730;8.762;2024-01-25T09:06:58;15.15;;;4.25;;
72639;SDS011;60683;51.730;8.762;2024-01-25T09:09:44;17.05;;;4.95;;
72639;SDS011;60683;51.730;8.762;2024-01-25T09:12:33;13.75;;;3.53;;
72639;SDS011;60683;51.730;8.762;2024-01-25T09:15:19;21.63;;;3.80;;
72639;SDS011;60683;51.730;8.762;2024-01-25T09:18:06;14.85;;;2.85;;
72639;SDS011;60683;51.730;8.762;2024-01-25T09:20:51;7.63;;;2.55;;
72639;SDS011;60683;51.730;8.762;2024-01-25T09:23:36;19.50;;;4.13;;
72639;SDS011;60683;51.730;8.762;2024-01-25T09:26:21;15.50;;;3.47;;
72639;SDS011;60683;51.730;8.762;2024-01-25T09:29:07;11.13;;;4.00;;
72639;SDS011;60683;51.730;8.762;2024-01-25T09:31:53;13.07;;;3.60;;
72639;SDS011;60683;51.730;8.762;2024-01-25T09:34:40;13.63;;;3.42;;
72639;SDS011;60683;51.730;8.762;2024-01-25T09:37:26;16.42;;;2.42;;
72639;SDS011;60683;51.730;8.762;2024-01-25T09:40:11;10.02;;;2.75;;
72639;SDS011;60683;51.730;8.762;2024-01-25T09:42:57;15.35;;;4.32;;
72639;SDS011;60683;51.730;8.762;2024-01-25T09:45:42;16.48;;;4.40;;
72639;SDS011;60683;51.730;8.762;2024-01-25T09:48:29;17.83;;;5.13;;
72639;SDS011;60683;51.730;8.762;2024-01-25T09:51:16;7.03;;;2.88;;
72639;SDS011;60683;51.730;8.762;2024-01-25T09:54:01;13.02;;;4.18;;
72639;SDS011;60683;51.730;8.762;2024-01-25T09:56:48;18.67;;;4.75;;
72639;SDS011;60683;51.730;8.762;2024-01-25T09:59:36;15.98;;;4.53;;
72639;SDS011;60683;51.730;8.762;2024-01-25T10:02:21;16.02;;;4.63;;
72639;SDS011;60683;51.730;8.762;2024-01-25T10:05:07;21.02;;;3.97;;
72639;SDS011;60683;51.730;8.762;2024-01-25T10:07:54;17.13;;;5.03;;
72639;SDS011;60683;51.730;8.762;2024-01-25T10:10:45;11.57;;;2.90;;
72639;SDS011;60683;51.730;8.762;2024-01-25T10:13:30;14.75;;;4.00;;
72639;SDS011;60683;51.730;8.762;2024-01-25T10:16:17;22.52;;;4.97;;
72639;SDS011;60683;51.730;8.762;2024-01-25T10:19:04;13.25;;;4.63;;
72639;SDS011;60683;51.730;8.762;2024-01-25T10:21:51;17.98;;;4.50;;
72639;SDS011;60683;51.730;8.762;2024-01-25T10:24:38;14.45;;;4.57;;
72639;SDS011;60683;51.730;8.762;2024-01-25T10:27:23;22.17;;;5.75;;
72639;SDS011;60683;51.730;8.762;2024-01-25T10:30:09;12.90;;;5.22;;
72639;SDS011;60683;51.730;8.762;2024-01-25T10:32:55;21.27;;;5.15;;
72639;SDS011;60683;51.730;8.762;2024-01-25T10:35:41;16.25;;;4.97;;
72639;SDS011;60683;51.730;8.762;2024-01-25T10:38:29;15.65;;;4.75;;
72639;SDS011;60683;51.730;8.762;2024-01-25T10:41:16;17.10;;;6.07;;
72639;SDS011;60683;51.730;8.762;2024-01-25T10:44:04;15.18;;;4.53;;
72639;SDS011;60683;51.730;8.762;2024-01-25T10:46:50;12.98;;;5.28;;
72639;SDS011;60683;51.730;8.762;2024-01-25T10:49:36;9.18;;;3.13;;
72639;SDS011;60683;51.730;8.762;2024-01-25T10:52:22;18.77;;;5.43;;
72639;SDS011;60683;51.730;8.762;2024-01-25T10:55:09;19.23;;;5.85;;
72639;SDS011;60683;51.730;8.762;2024-01-25T10:57:57;14.82;;;4.80;;
72639;SDS011;60683;51.730;8.762;2024-01-25T11:00:49;25.45;;;5.57;;
72639;SDS011;60683;51.730;8.762;2024-01-25T11:03:36;15.88;;;5.70;;
72639;SDS011;60683;51.730;8.762;2024-01-25T11:06:21;14.45;;;4.55;;
72639;SDS011;60683;51.730;8.762;2024-01-25T11:09:07;16.38;;;5.68;;
72639;SDS011;60683;51.730;8.762;2024-01-25T11:11:54;13.30;;;6.57;;
72639;SDS011;60683;51.730;8.762;2024-01-25T11:14:41;10.68;;;4.75;;
72639;SDS011;60683;51.730;8.762;2024-01-25T11:17:26;25.33;;;6.53;;
72639;SDS011;60683;51.730;8.762;2024-01-25T11:20:12;14.75;;;5.57;;
72639;SDS011;60683;51.730;8.762;2024-01-25T11:22:58;15.95;;;6.13;;
72639;SDS011;60683;51.730;8.762;2024-01-25T11:25:48;9.95;;;3.70;;
72639;SDS011;60683;51.730;8.762;2024-01-25T11:28:33;22.83;;;7.00;;
72639;SDS011;60683;51.730;8.762;2024-01-25T11:31:21;12.23;;;4.57;;
72639;SDS011;60683;51.730;8.762;2024-01-25T11:34:06;18.15;;;7.47;;
72639;SDS011;60683;51.730;8.762;2024-01-25T11:36:55;16.13;;;6.13;;
72639;SDS011;60683;51.730;8.762;2024-01-25T11:39:41;16.88;;;5.63;;
72639;SDS011;60683;51.730;8.762;2024-01-25T11:42:28;21.38;;;6.68;;
72639;SDS011;60683;51.730;8.762;2024-01-25T11:45:14;12.60;;;5.43;;
72639;SDS011;60683;51.730;8.762;2024-01-25T11:48:02;21.70;;;6.82;;
72639;SDS011;60683;51.730;8.762;2024-01-25T11:50:47;9.07;;;5.32;;
72639;SDS011;60683;51.730;8.762;2024-01-25T11:53:33;19.95;;;6.47;;
72639;SDS011;60683;51.730;8.762;2024-01-25T11:56:19;19.58;;;7.32;;
72639;SDS011;60683;51.730;8.762;2024-01-25T11:59:08;25.77;;;6.47;;
72639;SDS011;60683;51.730;8.762;2024-01-25T12:01:55;21.05;;;8.80;;
72639;SDS011;60683;51.730;8.762;2024-01-25T12:04:41;20.55;;;5.80;;
72639;SDS011;60683;51.730;8.762;2024-01-25T12:07:27;17.23;;;6.45;;
72639;SDS011;60683;51.730;8.762;2024-01-25T12:10:15;13.15;;;4.18;;
72639;SDS011;60683;51.730;8.762;2024-01-25T12:13:01;14.35;;;5.53;;
72639;SDS011;60683;51.730;8.762;2024-01-25T12:15:47;28.58;;;6.28;;
72639;SDS011;60683;51.730;8.762;2024-01-25T12:18:32;21.30;;;6.25;;
72639;SDS011;60683;51.730;8.762;2024-01-25T12:21:20;16.65;;;5.85;;
72639;SDS011;60683;51.730;8.762;2024-01-25T12:24:06;20.15;;;6.05;;
72639;SDS011;60683;51.730;8.762;2024-01-25T12:26:54;18.00;;;6.70;;
72639;SDS011;60683;51.730;8.762;2024-01-25T12:29:39;20.85;;;5.75;;
72639;SDS011;60683;51.730;8.762;2024-01-25T12:32:25;15.60;;;5.95;;
72639;SDS011;60683;51.730;8.762;2024-01-25T12:35:11;12.25;;;4.93;;
72639;SDS011;60683;51.730;8.762;2024-01-25T12:37:58;16.45;;;5.07;;
72639;SDS011;60683;51.730;8.762;2024-01-25T12:40:44;19.05;;;6.60;;
72639;SDS011;60683;51.730;8.762;2024-01-25T12:43:31;20.63;;;6.32;;
72639;SDS011;60683;51.730;8.762;2024-01-25T12:46:17;13.02;;;5.90;;
72639;SDS011;60683;51.730;8.762;2024-01-25T12:49:02;18.20;;;6.28;;
72639;SDS011;60683;51.730;8.762;2024-01-25T12:51:48;15.60;;;5.28;;
72639;SDS011;60683;51.730;8.762;2024-01-25T12:54:35;13.27;;;4.88;;
72639;SDS011;60683;51.730;8.762;2024-01-25T12:57:21;18.85;;;5.15;;
72639;SDS011;60683;51.730;8.762;2024-01-25T13:00:07;13.63;;;5.10;;
72639;SDS011;60683;51.730;8.762;2024-01-25T13:02:53;15.20;;;5.18;;
72639;SDS011;60683;51.730;8.762;2024-01-25T13:08:26;16.65;;;5.80;;
72639;SDS011;60683;51.730;8.762;2024-01-25T13:11:12;22.92;;;4.45;;
72639;SDS011;60683;51.730;8.762;2024-01-25T13:13:58;8.52;;;4.65;;
72639;SDS011;60683;51.730;8.762;2024-01-25T13:16:43;17.92;;;5.38;;
72639;SDS011;60683;51.730;8.762;2024-01-25T13:19:29;17.75;;;6.30;;
72639;SDS011;60683;51.730;8.762;2024-01-25T13:22:14;14.30;;;3.97;;
72639;SDS011;60683;51.730;8.762;2024-01-25T13:25:01;12.88;;;4.72;;
72639;SDS011;60683;51.730;8.762;2024-01-25T13:27:49;16.85;;;5.05;;
72639;SDS011;60683;51.730;8.762;2024-01-25T13:30:35;17.08;;;4.78;;
72639;SDS011;60683;51.730;8.762;2024-01-25T13:33:21;17.27;;;5.07;;
72639;SDS011;60683;51.730;8.762;2024-01-25T13:36:06;14.85;;;4.55;;
72639;SDS011;60683;51.730;8.762;2024-01-25T13:38:54;20.55;;;5.53;;
72639;SDS011;60683;51.730;8.762;2024-01-25T13:41:40;18.70;;;4.68;;
72639;SDS011;60683;51.730;8.762;2024-01-25T13:44:26;16.02;;;4.28;;
72639;SDS011;60683;51.730;8.762;2024-01-25T13:47:12;16.00;;;4.57;;
72639;SDS011;60683;51.730;8.762;2024-01-25T13:49:57;13.07;;;4.25;;
72639;SDS011;60683;51.730;8.762;2024-01-25T13:52:42;14.93;;;3.58;;
72639;SDS011;60683;51.730;8.762;2024-01-25T13:55:28;20.45;;;4.40;;
72639;SDS011;60683;51.730;8.762;2024-01-25T13:58:13;13.98;;;4.05;;
72639;SDS011;60683;51.730;8.762;2024-01-25T14:00:59;16.58;;;4.25;;
72639;SDS011;60683;51.730;8.762;2024-01-25T14:03:45;21.75;;;4.57;;
72639;SDS011;60683;51.730;8.762;2024-01-25T14:06:30;13.82;;;3.58;;
72639;SDS011;60683;51.730;8.762;2024-01-25T14:09:15;14.48;;;4.22;;
72639;SDS011;60683;51.730;8.762;2024-01-25T14:12:00;11.75;;;2.80;;
72639;SDS011;60683;51.730;8.762;2024-01-25T14:14:46;10.73;;;2.95;;
72639;SDS011;60683;51.730;8.762;2024-01-25T14:17:33;11.20;;;3.42;;
72639;SDS011;60683;51.730;8.762;2024-01-25T14:20:20;10.63;;;3.10;;
72639;SDS011;60683;51.730;8.762;2024-01-25T14:23:06;10.82;;;3.25;;
72639;SDS011;60683;51.730;8.762;2024-01-25T14:25:52;16.17;;;2.95;;
72639;SDS011;60683;51.730;8.762;2024-01-25T14:28:37;16.00;;;3.40;;
72639;SDS011;60683;51.730;8.762;2024-01-25T14:31:22;14.43;;;4.15;;
72639;SDS011;60683;51.730;8.762;2024-01-25T14:34:08;15.18;;;4.30;;
72639;SDS011;60683;51.730;8.762;2024-01-25T14:36:54;14.88;;;3.30;;
72639;SDS011;60683;51.730;8.762;2024-01-25T14:39:39;15.18;;;4.18;;
72639;SDS011;60683;51.730;8.762;2024-01-25T14:42:25;16.83;;;3.95;;
72639;SDS011;60683;51.730;8.762;2024-01-25T14:45:10;12.77;;;3.42;;
72639;SDS011;60683;51.730;8.762;2024-01-25T14:47:56;12.60;;;2.58;;
72639;SDS011;60683;51.730;8.762;2024-01-25T14:50:42;11.90;;;3.53;;
72639;SDS011;60683;51.730;8.762;2024-01-25T14:53:28;7.47;;;2.47;;
72639;SDS011;60683;51.730;8.762;2024-01-25T14:56:13;11.00;;;3.67;;
72639;SDS011;60683;51.730;8.762;2024-01-25T14:58:59;13.85;;;2.97;;
72639;SDS011;60683;51.730;8.762;2024-01-25T15:01:46;12.10;;;2.95;;
72639;SDS011;60683;51.730;8.762;2024-01-25T15:04:31;18.55;;;3.22;;
72639;SDS011;60683;51.730;8.762;2024-01-25T15:07:18;12.70;;;3.25;;
72639;SDS011;60683;51.730;8.762;2024-01-25T15:10:06;17.35;;;3.85;;
72639;SDS011;60683;51.730;8.762;2024-01-25T15:12:51;14.68;;;3.63;;
72639;SDS011;60683;51.730;8.762;2024-01-25T15:15:38;14.35;;;2.65;;
72639;SDS011;60683;51.730;8.762;2024-01-25T15:18:23;14.25;;;3.47;;
72639;SDS011;60683;51.730;8.762;2024-01-25T15:21:08;16.23;;;3.63;;
72639;SDS011;60683;51.730;8.762;2024-01-25T15:23:55;13.63;;;3.28;;
72639;SDS011;60683;51.730;8.762;2024-01-25T15:26:41;8.80;;;3.53;;
72639;SDS011;60683;51.730;8.762;2024-01-25T15:29:27;18.88;;;3.25;;
72639;SDS011;60683;51.730;8.762;2024-01-25T15:32:13;10.98;;;3.03;;
72639;SDS011;60683;51.730;8.762;2024-01-25T15:34:58;7.13;;;2.58;;
72639;SDS011;60683;51.730;8.762;2024-01-25T15:37:44;9.85;;;2.95;;
72639;SDS011;60683;51.730;8.762;2024-01-25T15:40:32;15.13;;;2.95;;
72639;SDS011;60683;51.730;8.762;2024-01-25T15:43:17;11.88;;;3.00;;
72639;SDS011;60683;51.730;8.762;2024-01-25T15:46:02;12.20;;;2.65;;
72639;SDS011;60683;51.730;8.762;2024-01-25T15:48:47;11.00;;;2.75;;
72639;SDS011;60683;51.730;8.762;2024-01-25T15:51:34;15.60;;;3.05;;
72639;SDS011;60683;51.730;8.762;2024-01-25T15:54:20;11.13;;;2.58;;
72639;SDS011;60683;51.730;8.762;2024-01-25T15:57:06;7.60;;;2.70;;
72639;SDS011;60683;51.730;8.762;2024-01-25T15:59:54;11.43;;;2.28;;
72639;SDS011;60683;51.730;8.762;2024-01-25T16:02:39;15.38;;;3.67;;
72639;SDS011;60683;51.730;8.762;2024-01-25T16:05:25;13.77;;;3.17;;
72639;SDS011;60683;51.730;8.762;2024-01-25T16:08:10;16.30;;;3.33;;
72639;SDS011;60683;51.730;8.762;2024-01-25T16:10:55;17.08;;;3.47;;
72639;SDS011;60683;51.730;8.762;2024-01-25T16:13:42;12.00;;;4.05;;
72639;SDS011;60683;51.730;8.762;2024-01-25T16:16:28;14.60;;;4.43;;
72639;SDS011;60683;51.730;8.762;2024-01-25T16:19:13;14.40;;;4.97;;
72639;SDS011;60683;51.730;8.762;2024-01-25T16:21:58;13.00;;;4.25;;
72639;SDS011;60683;51.730;8.762;2024-01-25T16:24:44;17.02;;;5.13;;
72639;SDS011;60683;51.730;8.762;2024-01-25T16:27:29;20.40;;;5.32;;
72639;SDS011;60683;51.730;8.762;2024-01-25T16:30:16;10.07;;;4.10;;
72639;SDS011;60683;51.730;8.762;2024-01-25T16:33:02;15.18;;;4.72;;